sensor_id;sensor_type;location;lat;lon;timestamp;P1;durP1;ratioP1;P2;durP2;ratioP2
7529;SDS011;3806;52.270;10.544;2022-08-25T00:01:21;9.02;;;5.07;;
7529;SDS011;3806;52.270;10.544;2022-08-25T00:03:49;6.22;;;3.50;;
7529;SDS011;3806;52.270;10.544;2022-08-25T00:06:15;8.88;;;4.22;;
7529;SDS011;3806;52.270;10.544;2022-08-25T00:08:41;7.15;;;4.25;;
7529;SDS011;3806;52.270;10.544;2022-08-25T00:11:09;5.93;;;4.10;;
7529;SDS011;3806;52.270;10.544;2022-08-25T00:13:40;7.45;;;4.20;;
7529;SDS011;3806;52.270;10.544;2022-08-25T00:16:12;7.57;;;4.28;;
7529;SDS011;3806;52.270;10.544;2022-08-25T00:18:41;8.57;;;4.20;;
7529;SDS011;3806;52.270;10.544;2022-08-25T00:21:09;7.13;;;4.00;;
7529;SDS011;3806;52.270;10.544;2022-08-25T00:23:36;6.03;;;4.25;;
7529;SDS011;3806;52.270;10.544;2022-08-25T00:26:02;9.10;;;4.63;;
7529;SDS011;3806;52.270;10.544;2022-08-25T00:28:28;8.60;;;4.07;;
7529;SDS011;3806;52.270;10.544;2022-08-25T00:30:55;6.60;;;4.03;;
7529;SDS011;3806;52.270;10.544;2022-08-25T00:33:22;6.40;;;4.10;;
7529;SDS011;3806;52.270;10.544;2022-08-25T00:35:50;6.57;;;4.25;;
7529;SDS011;3806;52.270;10.544;2022-08-25T00:38:16;8.02;;;5.13;;
7529;SDS011;3806;52.270;10.544;2022-08-25T00:40:42;6.60;;;4.28;;
7529;SDS011;3806;52.270;10.544;2022-08-25T00:43:09;10.32;;;4.95;;
7529;SDS011;3806;52.270;10.544;2022-08-25T00:45:36;7.07;;;4.00;;
7529;SDS011;3806;52.270;10.544;2022-08-25T00:48:02;7.72;;;4.18;;
7529;SDS011;3806;52.270;10.544;2022-08-25T00:50:28;7.55;;;4.10;;
7529;SDS011;3806;52.270;10.544;2022-08-25T00:52:57;8.30;;;4.63;;
7529;SDS011;3806;52.270;10.544;2022-08-25T00:55:27;13.10;;;4.55;;
7529;SDS011;3806;52.270;10.544;2022-08-25T00:57:59;9.18;;;4.80;;
7529;SDS011;3806;52.270;10.544;2022-08-25T01:00:35;7.30;;;4.55;;
7529;SDS011;3806;52.270;10.544;2022-08-25T01:03:04;9.18;;;4.88;;
7529;SDS011;3806;52.270;10.544;2022-08-25T01:05:30;11.07;;;4.47;;
7529;SDS011;3806;52.270;10.544;2022-08-25T01:07:56;9.43;;;5.28;;
7529;SDS011;3806;52.270;10.544;2022-08-25T01:10:23;9.82;;;4.93;;
7529;SDS011;3806;52.270;10.544;2022-08-25T01:12:50;7.60;;;4.97;;
7529;SDS011;3806;52.270;10.544;2022-08-25T01:15:19;9.05;;;4.82;;
7529;SDS011;3806;52.270;10.544;2022-08-25T01:17:53;8.27;;;5.45;;
7529;SDS011;3806;52.270;10.544;2022-08-25T01:20:22;13.20;;;5.15;;
7529;SDS011;3806;52.270;10.544;2022-08-25T01:22:51;8.45;;;5.05;;
7529;SDS011;3806;52.270;10.544;2022-08-25T01:28:15;8.82;;;5.10;;
7529;SDS011;3806;52.270;10.544;2022-08-25T01:30:42;9.27;;;4.95;;
7529;SDS011;3806;52.270;10.544;2022-08-25T01:33:09;9.50;;;5.07;;
7529;SDS011;3806;52.270;10.544;2022-08-25T01:35:36;13.45;;;5.60;;
7529;SDS011;3806;52.270;10.544;2022-08-25T01:38:04;9.02;;;4.70;;
7529;SDS011;3806;52.270;10.544;2022-08-25T01:40:31;9.18;;;5.28;;
7529;SDS011;3806;52.270;10.544;2022-08-25T01:45:40;12.20;;;6.25;;
7529;SDS011;3806;52.270;10.544;2022-08-25T01:48:09;13.88;;;6.70;;
7529;SDS011;3806;52.270;10.544;2022-08-25T01:50:36;11.90;;;6.07;;
7529;SDS011;3806;52.270;10.544;2022-08-25T01:53:06;9.98;;;5.65;;
7529;SDS011;3806;52.270;10.544;2022-08-25T01:55:32;8.75;;;5.65;;
7529;SDS011;3806;52.270;10.544;2022-08-25T01:58:16;11.32;;;6.10;;
7529;SDS011;3806;52.270;10.544;2022-08-25T02:00:51;13.90;;;6.47;;
7529;SDS011;3806;52.270;10.544;2022-08-25T02:03:19;8.48;;;5.85;;
7529;SDS011;3806;52.270;10.544;2022-08-25T02:05:45;10.30;;;6.10;;
7529;SDS011;3806;52.270;10.544;2022-08-25T02:08:11;15.65;;;7.45;;
7529;SDS011;3806;52.270;10.544;2022-08-25T02:10:38;9.70;;;6.18;;
7529;SDS011;3806;52.270;10.544;2022-08-25T02:13:05;12.25;;;5.22;;
7529;SDS011;3806;52.270;10.544;2022-08-25T02:15:31;9.63;;;6.68;;
7529;SDS011;3806;52.270;10.544;2022-08-25T02:17:57;11.02;;;6.80;;
7529;SDS011;3806;52.270;10.544;2022-08-25T02:20:23;10.73;;;7.22;;
7529;SDS011;3806;52.270;10.544;2022-08-25T02:22:50;11.77;;;6.68;;
7529;SDS011;3806;52.270;10.544;2022-08-25T02:25:17;10.35;;;6.10;;
7529;SDS011;3806;52.270;10.544;2022-08-25T02:27:43;8.88;;;6.30;;
7529;SDS011;3806;52.270;10.544;2022-08-25T02:30:10;8.88;;;6.18;;
7529;SDS011;3806;52.270;10.544;2022-08-25T02:32:37;9.30;;;5.90;;
7529;SDS011;3806;52.270;10.544;2022-08-25T02:35:04;11.45;;;6.78;;
7529;SDS011;3806;52.270;10.544;2022-08-25T02:37:30;14.82;;;6.32;;
7529;SDS011;3806;52.270;10.544;2022-08-25T02:39:56;10.43;;;6.88;;
7529;SDS011;3806;52.270;10.544;2022-08-25T02:42:23;8.48;;;6.15;;
7529;SDS011;3806;52.270;10.544;2022-08-25T02:44:49;8.35;;;6.38;;
7529;SDS011;3806;52.270;10.544;2022-08-25T02:47:15;10.20;;;6.05;;
7529;SDS011;3806;52.270;10.544;2022-08-25T02:49:41;12.38;;;6.32;;
7529;SDS011;3806;52.270;10.544;2022-08-25T02:52:07;9.68;;;6.30;;
7529;SDS011;3806;52.270;10.544;2022-08-25T02:54:33;13.82;;;6.32;;
7529;SDS011;3806;52.270;10.544;2022-08-25T02:56:59;8.20;;;6.13;;
7529;SDS011;3806;52.270;10.544;2022-08-25T02:59:25;11.93;;;6.22;;
7529;SDS011;3806;52.270;10.544;2022-08-25T03:01:51;12.85;;;6.10;;
7529;SDS011;3806;52.270;10.544;2022-08-25T03:04:16;16.23;;;6.90;;
7529;SDS011;3806;52.270;10.544;2022-08-25T03:06:42;12.23;;;6.55;;
7529;SDS011;3806;52.270;10.544;2022-08-25T03:09:08;8.48;;;5.93;;
7529;SDS011;3806;52.270;10.544;2022-08-25T03:11:34;12.20;;;5.57;;
7529;SDS011;3806;52.270;10.544;2022-08-25T03:14:02;11.73;;;6.32;;
7529;SDS011;3806;52.270;10.544;2022-08-25T03:16:29;13.75;;;6.32;;
7529;SDS011;3806;52.270;10.544;2022-08-25T03:18:55;9.27;;;5.40;;
7529;SDS011;3806;52.270;10.544;2022-08-25T03:21:21;8.00;;;5.47;;
7529;SDS011;3806;52.270;10.544;2022-08-25T03:23:47;10.93;;;6.25;;
7529;SDS011;3806;52.270;10.544;2022-08-25T03:26:13;12.88;;;6.88;;
7529;SDS011;3806;52.270;10.544;2022-08-25T03:28:57;9.88;;;6.45;;
7529;SDS011;3806;52.270;10.544;2022-08-25T03:31:24;10.25;;;6.05;;
7529;SDS011;3806;52.270;10.544;2022-08-25T03:33:52;8.52;;;6.28;;
7529;SDS011;3806;52.270;10.544;2022-08-25T03:36:18;14.45;;;6.47;;
7529;SDS011;3806;52.270;10.544;2022-08-25T03:38:44;11.82;;;6.70;;
7529;SDS011;3806;52.270;10.544;2022-08-25T03:41:11;14.00;;;7.20;;
7529;SDS011;3806;52.270;10.544;2022-08-25T03:43:41;11.45;;;6.07;;
7529;SDS011;3806;52.270;10.544;2022-08-25T03:46:09;10.57;;;6.53;;
7529;SDS011;3806;52.270;10.544;2022-08-25T03:48:49;10.25;;;6.72;;
7529;SDS011;3806;52.270;10.544;2022-08-25T03:53:51;10.70;;;5.97;;
7529;SDS011;3806;52.270;10.544;2022-08-25T03:56:17;11.45;;;6.75;;
7529;SDS011;3806;52.270;10.544;2022-08-25T03:58:44;11.95;;;6.22;;
7529;SDS011;3806;52.270;10.544;2022-08-25T04:01:10;12.13;;;6.78;;
7529;SDS011;3806;52.270;10.544;2022-08-25T04:03:36;12.30;;;6.43;;
7529;SDS011;3806;52.270;10.544;2022-08-25T04:06:02;10.88;;;6.53;;
7529;SDS011;3806;52.270;10.544;2022-08-25T04:08:29;9.32;;;6.63;;
7529;SDS011;3806;52.270;10.544;2022-08-25T04:10:55;12.10;;;6.43;;
7529;SDS011;3806;52.270;10.544;2022-08-25T04:13:21;12.45;;;6.90;;
7529;SDS011;3806;52.270;10.544;2022-08-25T04:15:47;11.13;;;6.68;;
7529;SDS011;3806;52.270;10.544;2022-08-25T04:18:13;13.15;;;6.72;;
7529;SDS011;3806;52.270;10.544;2022-08-25T04:20:39;11.20;;;7.68;;
7529;SDS011;3806;52.270;10.544;2022-08-25T04:23:06;13.35;;;7.63;;
7529;SDS011;3806;52.270;10.544;2022-08-25T04:25:33;13.48;;;7.00;;
7529;SDS011;3806;52.270;10.544;2022-08-25T04:27:58;14.43;;;7.22;;
7529;SDS011;3806;52.270;10.544;2022-08-25T04:30:24;12.63;;;6.93;;
7529;SDS011;3806;52.270;10.544;2022-08-25T04:32:50;10.95;;;6.47;;
7529;SDS011;3806;52.270;10.544;2022-08-25T04:35:15;13.38;;;7.03;;
7529;SDS011;3806;52.270;10.544;2022-08-25T04:37:41;11.40;;;7.30;;
7529;SDS011;3806;52.270;10.544;2022-08-25T04:40:07;12.60;;;7.18;;
7529;SDS011;3806;52.270;10.544;2022-08-25T04:42:34;14.13;;;7.50;;
7529;SDS011;3806;52.270;10.544;2022-08-25T04:45:00;11.40;;;7.85;;
7529;SDS011;3806;52.270;10.544;2022-08-25T04:47:27;14.68;;;8.82;;
7529;SDS011;3806;52.270;10.544;2022-08-25T04:49:53;9.93;;;7.05;;
7529;SDS011;3806;52.270;10.544;2022-08-25T04:52:19;11.95;;;7.50;;
7529;SDS011;3806;52.270;10.544;2022-08-25T04:54:44;12.98;;;7.50;;
7529;SDS011;3806;52.270;10.544;2022-08-25T04:57:11;16.60;;;7.68;;
7529;SDS011;3806;52.270;10.544;2022-08-25T04:59:37;14.07;;;7.72;;
7529;SDS011;3806;52.270;10.544;2022-08-25T05:02:03;13.68;;;8.10;;
7529;SDS011;3806;52.270;10.544;2022-08-25T05:04:31;11.30;;;7.57;;
7529;SDS011;3806;52.270;10.544;2022-08-25T05:06:58;11.82;;;8.20;;
7529;SDS011;3806;52.270;10.544;2022-08-25T05:09:25;15.60;;;8.52;;
7529;SDS011;3806;52.270;10.544;2022-08-25T05:11:51;14.25;;;7.65;;
7529;SDS011;3806;52.270;10.544;2022-08-25T05:14:17;12.68;;;7.90;;
7529;SDS011;3806;52.270;10.544;2022-08-25T05:16:46;18.23;;;8.95;;
7529;SDS011;3806;52.270;10.544;2022-08-25T05:19:13;14.65;;;8.07;;
7529;SDS011;3806;52.270;10.544;2022-08-25T05:21:39;15.90;;;8.55;;
7529;SDS011;3806;52.270;10.544;2022-08-25T05:24:05;13.60;;;8.88;;
7529;SDS011;3806;52.270;10.544;2022-08-25T05:26:32;12.90;;;8.32;;
7529;SDS011;3806;52.270;10.544;2022-08-25T05:28:59;13.77;;;8.95;;
7529;SDS011;3806;52.270;10.544;2022-08-25T05:31:27;14.13;;;8.65;;
7529;SDS011;3806;52.270;10.544;2022-08-25T05:33:53;14.00;;;8.13;;
7529;SDS011;3806;52.270;10.544;2022-08-25T05:36:20;15.95;;;9.15;;
7529;SDS011;3806;52.270;10.544;2022-08-25T05:38:47;15.00;;;8.02;;
7529;SDS011;3806;52.270;10.544;2022-08-25T05:41:23;15.35;;;8.43;;
7529;SDS011;3806;52.270;10.544;2022-08-25T05:43:51;12.35;;;7.20;;
7529;SDS011;3806;52.270;10.544;2022-08-25T05:46:17;13.88;;;8.35;;
7529;SDS011;3806;52.270;10.544;2022-08-25T05:48:44;16.10;;;8.18;;
7529;SDS011;3806;52.270;10.544;2022-08-25T05:51:10;15.65;;;7.85;;
7529;SDS011;3806;52.270;10.544;2022-08-25T05:53:37;15.15;;;7.72;;
7529;SDS011;3806;52.270;10.544;2022-08-25T05:56:05;12.43;;;7.80;;
7529;SDS011;3806;52.270;10.544;2022-08-25T05:58:31;11.85;;;7.57;;
7529;SDS011;3806;52.270;10.544;2022-08-25T06:00:58;14.68;;;9.02;;
7529;SDS011;3806;52.270;10.544;2022-08-25T06:03:47;12.32;;;8.27;;
7529;SDS011;3806;52.270;10.544;2022-08-25T06:06:13;16.10;;;7.55;;
7529;SDS011;3806;52.270;10.544;2022-08-25T06:08:40;13.07;;;8.13;;
7529;SDS011;3806;52.270;10.544;2022-08-25T06:11:07;10.05;;;7.22;;
7529;SDS011;3806;52.270;10.544;2022-08-25T06:13:33;11.23;;;7.55;;
7529;SDS011;3806;52.270;10.544;2022-08-25T06:15:59;10.60;;;6.82;;
7529;SDS011;3806;52.270;10.544;2022-08-25T06:18:25;11.85;;;7.45;;
7529;SDS011;3806;52.270;10.544;2022-08-25T06:20:51;9.73;;;6.63;;
7529;SDS011;3806;52.270;10.544;2022-08-25T06:23:16;11.88;;;6.57;;
7529;SDS011;3806;52.270;10.544;2022-08-25T06:25:51;12.70;;;7.10;;
7529;SDS011;3806;52.270;10.544;2022-08-25T06:28:18;9.77;;;6.15;;
7529;SDS011;3806;52.270;10.544;2022-08-25T06:30:45;9.25;;;5.93;;
7529;SDS011;3806;52.270;10.544;2022-08-25T06:33:11;11.00;;;6.50;;
7529;SDS011;3806;52.270;10.544;2022-08-25T06:35:39;10.32;;;6.32;;
7529;SDS011;3806;52.270;10.544;2022-08-25T06:38:06;8.45;;;5.05;;
7529;SDS011;3806;52.270;10.544;2022-08-25T06:40:32;12.35;;;6.80;;
7529;SDS011;3806;52.270;10.544;2022-08-25T06:42:57;8.70;;;5.57;;
7529;SDS011;3806;52.270;10.544;2022-08-25T06:45:23;10.30;;;5.93;;
7529;SDS011;3806;52.270;10.544;2022-08-25T06:47:48;8.65;;;5.72;;
7529;SDS011;3806;52.270;10.544;2022-08-25T06:50:16;12.30;;;6.22;;
7529;SDS011;3806;52.270;10.544;2022-08-25T06:52:42;9.23;;;6.07;;
7529;SDS011;3806;52.270;10.544;2022-08-25T06:55:08;8.85;;;5.97;;
7529;SDS011;3806;52.270;10.544;2022-08-25T06:57:34;10.48;;;6.97;;
7529;SDS011;3806;52.270;10.544;2022-08-25T07:00:00;9.40;;;6.80;;
7529;SDS011;3806;52.270;10.544;2022-08-25T07:02:27;9.75;;;6.75;;
7529;SDS011;3806;52.270;10.544;2022-08-25T07:04:53;14.50;;;6.88;;
7529;SDS011;3806;52.270;10.544;2022-08-25T07:07:19;10.38;;;7.25;;
7529;SDS011;3806;52.270;10.544;2022-08-25T07:09:45;11.02;;;6.82;;
7529;SDS011;3806;52.270;10.544;2022-08-25T07:12:11;10.57;;;6.82;;
7529;SDS011;3806;52.270;10.544;2022-08-25T07:14:36;10.00;;;6.57;;
7529;SDS011;3806;52.270;10.544;2022-08-25T07:17:02;9.77;;;5.88;;
7529;SDS011;3806;52.270;10.544;2022-08-25T07:19:28;11.38;;;7.13;;
7529;SDS011;3806;52.270;10.544;2022-08-25T07:21:54;11.05;;;7.50;;
7529;SDS011;3806;52.270;10.544;2022-08-25T07:24:19;8.68;;;6.05;;
7529;SDS011;3806;52.270;10.544;2022-08-25T07:26:46;9.70;;;6.55;;
7529;SDS011;3806;52.270;10.544;2022-08-25T07:29:17;11.07;;;6.90;;
7529;SDS011;3806;52.270;10.544;2022-08-25T07:31:45;8.90;;;6.35;;
7529;SDS011;3806;52.270;10.544;2022-08-25T07:34:11;9.35;;;5.90;;
7529;SDS011;3806;52.270;10.544;2022-08-25T07:36:56;11.25;;;6.18;;
7529;SDS011;3806;52.270;10.544;2022-08-25T07:39:24;10.50;;;6.40;;
7529;SDS011;3806;52.270;10.544;2022-08-25T07:41:51;11.48;;;6.43;;
7529;SDS011;3806;52.270;10.544;2022-08-25T07:44:17;8.98;;;6.13;;
7529;SDS011;3806;52.270;10.544;2022-08-25T07:46:44;8.40;;;5.68;;
7529;SDS011;3806;52.270;10.544;2022-08-25T07:49:09;7.55;;;5.70;;
7529;SDS011;3806;52.270;10.544;2022-08-25T07:51:35;7.68;;;5.45;;
7529;SDS011;3806;52.270;10.544;2022-08-25T07:54:00;9.98;;;6.28;;
7529;SDS011;3806;52.270;10.544;2022-08-25T07:56:26;7.35;;;5.63;;
7529;SDS011;3806;52.270;10.544;2022-08-25T07:58:52;9.38;;;5.60;;
7529;SDS011;3806;52.270;10.544;2022-08-25T08:01:19;10.75;;;6.85;;
7529;SDS011;3806;52.270;10.544;2022-08-25T08:03:47;8.18;;;5.35;;
7529;SDS011;3806;52.270;10.544;2022-08-25T08:06:15;10.35;;;5.72;;
7529;SDS011;3806;52.270;10.544;2022-08-25T08:08:42;8.38;;;5.60;;
7529;SDS011;3806;52.270;10.544;2022-08-25T08:11:21;7.22;;;6.32;;
7529;SDS011;3806;52.270;10.544;2022-08-25T08:13:46;8.32;;;6.05;;
7529;SDS011;3806;52.270;10.544;2022-08-25T08:16:13;10.10;;;6.93;;
7529;SDS011;3806;52.270;10.544;2022-08-25T08:18:41;6.90;;;5.45;;
7529;SDS011;3806;52.270;10.544;2022-08-25T08:21:15;6.07;;;4.80;;
7529;SDS011;3806;52.270;10.544;2022-08-25T08:23:43;9.60;;;5.95;;
7529;SDS011;3806;52.270;10.544;2022-08-25T08:26:09;11.77;;;6.18;;
7529;SDS011;3806;52.270;10.544;2022-08-25T08:28:35;12.40;;;5.68;;
7529;SDS011;3806;52.270;10.544;2022-08-25T08:31:01;12.20;;;6.50;;
7529;SDS011;3806;52.270;10.544;2022-08-25T08:33:27;10.75;;;5.20;;
7529;SDS011;3806;52.270;10.544;2022-08-25T08:36:09;12.13;;;5.65;;
7529;SDS011;3806;52.270;10.544;2022-08-25T08:38:36;8.13;;;5.35;;
7529;SDS011;3806;52.270;10.544;2022-08-25T08:44:13;12.27;;;5.30;;
7529;SDS011;3806;52.270;10.544;2022-08-25T08:47:05;7.50;;;5.30;;
7529;SDS011;3806;52.270;10.544;2022-08-25T08:52:20;9.67;;;6.90;;
7529;SDS011;3806;52.270;10.544;2022-08-25T08:54:54;12.15;;;6.25;;
7529;SDS011;3806;52.270;10.544;2022-08-25T08:57:24;10.65;;;5.60;;
7529;SDS011;3806;52.270;10.544;2022-08-25T08:59:56;8.05;;;5.43;;
7529;SDS011;3806;52.270;10.544;2022-08-25T09:02:37;12.95;;;6.07;;
7529;SDS011;3806;52.270;10.544;2022-08-25T09:05:13;10.60;;;5.95;;
7529;SDS011;3806;52.270;10.544;2022-08-25T09:07:43;13.15;;;5.82;;
7529;SDS011;3806;52.270;10.544;2022-08-25T09:10:12;11.65;;;6.40;;
7529;SDS011;3806;52.270;10.544;2022-08-25T09:12:42;9.30;;;5.78;;
7529;SDS011;3806;52.270;10.544;2022-08-25T09:15:25;11.65;;;5.47;;
7529;SDS011;3806;52.270;10.544;2022-08-25T09:18:48;10.77;;;5.68;;
7529;SDS011;3806;52.270;10.544;2022-08-25T09:21:32;11.82;;;6.07;;
7529;SDS011;3806;52.270;10.544;2022-08-25T09:27:16;11.30;;;5.85;;
7529;SDS011;3806;52.270;10.544;2022-08-25T09:29:51;9.65;;;6.00;;
7529;SDS011;3806;52.270;10.544;2022-08-25T09:32:29;12.77;;;5.05;;
7529;SDS011;3806;52.270;10.544;2022-08-25T09:35:09;5.85;;;4.70;;
7529;SDS011;3806;52.270;10.544;2022-08-25T09:37:55;9.75;;;4.43;;
7529;SDS011;3806;52.270;10.544;2022-08-25T09:40:30;9.48;;;5.18;;
7529;SDS011;3806;52.270;10.544;2022-08-25T09:42:59;9.30;;;5.13;;
7529;SDS011;3806;52.270;10.544;2022-08-25T09:45:39;12.80;;;5.35;;
7529;SDS011;3806;52.270;10.544;2022-08-25T09:48:21;11.95;;;5.63;;
7529;SDS011;3806;52.270;10.544;2022-08-25T09:50:50;8.55;;;4.72;;
7529;SDS011;3806;52.270;10.544;2022-08-25T09:53:19;9.13;;;5.68;;
7529;SDS011;3806;52.270;10.544;2022-08-25T09:55:46;11.23;;;5.72;;
7529;SDS011;3806;52.270;10.544;2022-08-25T09:58:22;9.98;;;4.00;;
7529;SDS011;3806;52.270;10.544;2022-08-25T10:04:03;10.15;;;5.05;;
7529;SDS011;3806;52.270;10.544;2022-08-25T10:06:33;11.90;;;5.18;;
7529;SDS011;3806;52.270;10.544;2022-08-25T10:09:07;9.27;;;5.50;;
7529;SDS011;3806;52.270;10.544;2022-08-25T10:11:41;10.52;;;5.20;;
7529;SDS011;3806;52.270;10.544;2022-08-25T10:16:43;9.43;;;6.00;;
7529;SDS011;3806;52.270;10.544;2022-08-25T10:21:38;11.55;;;5.35;;
7529;SDS011;3806;52.270;10.544;2022-08-25T10:24:06;10.85;;;5.20;;
7529;SDS011;3806;52.270;10.544;2022-08-25T10:29:25;8.15;;;4.65;;
7529;SDS011;3806;52.270;10.544;2022-08-25T10:31:58;8.40;;;4.97;;
7529;SDS011;3806;52.270;10.544;2022-08-25T10:34:52;8.63;;;4.68;;
7529;SDS011;3806;52.270;10.544;2022-08-25T10:39:58;7.85;;;5.45;;
7529;SDS011;3806;52.270;10.544;2022-08-25T10:42:29;8.38;;;4.68;;
7529;SDS011;3806;52.270;10.544;2022-08-25T10:45:06;9.30;;;5.07;;
7529;SDS011;3806;52.270;10.544;2022-08-25T10:50:52;8.55;;;4.55;;
7529;SDS011;3806;52.270;10.544;2022-08-25T10:56:14;10.98;;;4.50;;
7529;SDS011;3806;52.270;10.544;2022-08-25T11:07:09;8.85;;;4.93;;
7529;SDS011;3806;52.270;10.544;2022-08-25T11:09:49;8.85;;;4.30;;
7529;SDS011;3806;52.270;10.544;2022-08-25T11:15:06;8.60;;;3.65;;
7529;SDS011;3806;52.270;10.544;2022-08-25T11:17:42;11.65;;;4.85;;
7529;SDS011;3806;52.270;10.544;2022-08-25T11:23:30;11.23;;;4.47;;
7529;SDS011;3806;52.270;10.544;2022-08-25T11:26:21;9.10;;;4.47;;
7529;SDS011;3806;52.270;10.544;2022-08-25T11:28:59;8.45;;;4.60;;
7529;SDS011;3806;52.270;10.544;2022-08-25T11:31:39;11.85;;;4.82;;
7529;SDS011;3806;52.270;10.544;2022-08-25T11:34:08;9.57;;;5.38;;
7529;SDS011;3806;52.270;10.544;2022-08-25T11:36:38;7.18;;;4.22;;
7529;SDS011;3806;52.270;10.544;2022-08-25T11:44:46;7.68;;;4.35;;
7529;SDS011;3806;52.270;10.544;2022-08-25T11:50:34;8.13;;;4.72;;
7529;SDS011;3806;52.270;10.544;2022-08-25T11:53:25;7.20;;;4.93;;
7529;SDS011;3806;52.270;10.544;2022-08-25T11:55:57;13.77;;;4.55;;
7529;SDS011;3806;52.270;10.544;2022-08-25T11:58:32;5.78;;;4.38;;
7529;SDS011;3806;52.270;10.544;2022-08-25T12:04:08;9.82;;;4.40;;
7529;SDS011;3806;52.270;10.544;2022-08-25T12:07:14;7.97;;;4.63;;
7529;SDS011;3806;52.270;10.544;2022-08-25T12:21:07;10.95;;;4.75;;
7529;SDS011;3806;52.270;10.544;2022-08-25T12:23:26;10.07;;;4.57;;
7529;SDS011;3806;52.270;10.544;2022-08-25T12:26:02;11.32;;;4.80;;
7529;SDS011;3806;52.270;10.544;2022-08-25T12:28:52;8.75;;;4.57;;
7529;SDS011;3806;52.270;10.544;2022-08-25T12:37:31;7.38;;;4.32;;
7529;SDS011;3806;52.270;10.544;2022-08-25T12:40:01;10.68;;;4.97;;
7529;SDS011;3806;52.270;10.544;2022-08-25T12:42:39;8.77;;;4.50;;
7529;SDS011;3806;52.270;10.544;2022-08-25T12:47:48;13.70;;;4.63;;
7529;SDS011;3806;52.270;10.544;2022-08-25T12:50:34;7.43;;;4.05;;
7529;SDS011;3806;52.270;10.544;2022-08-25T12:53:17;6.32;;;4.35;;
7529;SDS011;3806;52.270;10.544;2022-08-25T12:55:53;7.88;;;4.25;;
7529;SDS011;3806;52.270;10.544;2022-08-25T12:58:27;8.07;;;4.47;;
7529;SDS011;3806;52.270;10.544;2022-08-25T13:09:59;6.37;;;4.50;;
7529;SDS011;3806;52.270;10.544;2022-08-25T13:12:49;7.38;;;4.90;;
7529;SDS011;3806;52.270;10.544;2022-08-25T13:15:35;8.88;;;4.63;;
7529;SDS011;3806;52.270;10.544;2022-08-25T13:21:01;10.90;;;4.53;;
7529;SDS011;3806;52.270;10.544;2022-08-25T13:23:39;14.75;;;4.90;;
7529;SDS011;3806;52.270;10.544;2022-08-25T13:26:08;7.10;;;4.85;;
7529;SDS011;3806;52.270;10.544;2022-08-25T13:28:48;8.43;;;4.25;;
7529;SDS011;3806;52.270;10.544;2022-08-25T13:31:21;9.73;;;5.28;;
7529;SDS011;3806;52.270;10.544;2022-08-25T13:33:56;11.05;;;4.80;;
7529;SDS011;3806;52.270;10.544;2022-08-25T13:36:29;7.60;;;4.00;;
7529;SDS011;3806;52.270;10.544;2022-08-25T13:39:19;7.90;;;4.40;;
7529;SDS011;3806;52.270;10.544;2022-08-25T13:41:48;11.50;;;4.28;;
7529;SDS011;3806;52.270;10.544;2022-08-25T13:44:19;10.13;;;4.60;;
7529;SDS011;3806;52.270;10.544;2022-08-25T13:47:03;9.13;;;5.35;;
7529;SDS011;3806;52.270;10.544;2022-08-25T13:49:30;8.63;;;4.82;;
7529;SDS011;3806;52.270;10.544;2022-08-25T13:51:56;7.35;;;4.25;;
7529;SDS011;3806;52.270;10.544;2022-08-25T13:54:29;8.60;;;4.75;;
7529;SDS011;3806;52.270;10.544;2022-08-25T13:57:02;8.48;;;4.13;;
7529;SDS011;3806;52.270;10.544;2022-08-25T14:00:07;6.97;;;4.30;;
7529;SDS011;3806;52.270;10.544;2022-08-25T14:02:40;6.63;;;4.28;;
7529;SDS011;3806;52.270;10.544;2022-08-25T14:05:15;8.93;;;4.25;;
7529;SDS011;3806;52.270;10.544;2022-08-25T14:07:57;11.07;;;4.50;;
7529;SDS011;3806;52.270;10.544;2022-08-25T14:10:36;9.85;;;4.78;;
7529;SDS011;3806;52.270;10.544;2022-08-25T14:15:36;8.23;;;4.32;;
7529;SDS011;3806;52.270;10.544;2022-08-25T14:18:22;10.05;;;4.57;;
7529;SDS011;3806;52.270;10.544;2022-08-25T14:20:54;7.63;;;4.70;;
7529;SDS011;3806;52.270;10.544;2022-08-25T14:23:22;13.82;;;4.60;;
7529;SDS011;3806;52.270;10.544;2022-08-25T14:25:51;9.73;;;4.47;;
7529;SDS011;3806;52.270;10.544;2022-08-25T14:28:20;8.68;;;4.30;;
7529;SDS011;3806;52.270;10.544;2022-08-25T14:30:49;6.95;;;4.25;;
7529;SDS011;3806;52.270;10.544;2022-08-25T14:33:17;8.65;;;4.45;;
7529;SDS011;3806;52.270;10.544;2022-08-25T14:35:46;8.65;;;4.18;;
7529;SDS011;3806;52.270;10.544;2022-08-25T14:38:13;8.00;;;4.60;;
7529;SDS011;3806;52.270;10.544;2022-08-25T14:40:40;6.85;;;4.60;;
7529;SDS011;3806;52.270;10.544;2022-08-25T14:43:06;6.38;;;4.35;;
7529;SDS011;3806;52.270;10.544;2022-08-25T14:45:33;8.30;;;3.78;;
7529;SDS011;3806;52.270;10.544;2022-08-25T14:48:06;8.32;;;4.68;;
7529;SDS011;3806;52.270;10.544;2022-08-25T14:50:34;8.82;;;4.70;;
7529;SDS011;3806;52.270;10.544;2022-08-25T14:53:01;8.27;;;4.70;;
7529;SDS011;3806;52.270;10.544;2022-08-25T14:55:27;8.60;;;4.20;;
7529;SDS011;3806;52.270;10.544;2022-08-25T14:57:53;10.73;;;4.72;;
7529;SDS011;3806;52.270;10.544;2022-08-25T15:00:19;9.20;;;5.20;;
7529;SDS011;3806;52.270;10.544;2022-08-25T15:02:45;9.13;;;4.70;;
7529;SDS011;3806;52.270;10.544;2022-08-25T15:05:14;7.82;;;4.63;;
7529;SDS011;3806;52.270;10.544;2022-08-25T15:07:44;7.90;;;4.45;;
7529;SDS011;3806;52.270;10.544;2022-08-25T15:10:28;8.82;;;4.85;;
7529;SDS011;3806;52.270;10.544;2022-08-25T15:12:54;7.70;;;5.35;;
7529;SDS011;3806;52.270;10.544;2022-08-25T15:15:19;7.70;;;4.50;;
7529;SDS011;3806;52.270;10.544;2022-08-25T15:17:45;9.93;;;4.95;;
7529;SDS011;3806;52.270;10.544;2022-08-25T15:20:12;7.93;;;4.78;;
7529;SDS011;3806;52.270;10.544;2022-08-25T15:22:38;11.27;;;4.70;;
7529;SDS011;3806;52.270;10.544;2022-08-25T15:25:04;7.95;;;5.32;;
7529;SDS011;3806;52.270;10.544;2022-08-25T15:27:30;8.70;;;4.80;;
7529;SDS011;3806;52.270;10.544;2022-08-25T15:29:56;10.43;;;4.72;;
7529;SDS011;3806;52.270;10.544;2022-08-25T15:32:22;8.85;;;5.13;;
7529;SDS011;3806;52.270;10.544;2022-08-25T15:34:48;6.90;;;4.97;;
7529;SDS011;3806;52.270;10.544;2022-08-25T15:37:15;8.85;;;4.68;;
7529;SDS011;3806;52.270;10.544;2022-08-25T15:39:42;6.38;;;4.60;;
7529;SDS011;3806;52.270;10.544;2022-08-25T15:42:09;9.32;;;4.78;;
7529;SDS011;3806;52.270;10.544;2022-08-25T15:44:39;9.25;;;4.88;;
7529;SDS011;3806;52.270;10.544;2022-08-25T15:47:05;9.20;;;4.80;;
7529;SDS011;3806;52.270;10.544;2022-08-25T15:49:31;8.23;;;4.70;;
7529;SDS011;3806;52.270;10.544;2022-08-25T15:51:57;6.97;;;4.55;;
7529;SDS011;3806;52.270;10.544;2022-08-25T15:54:24;7.13;;;4.72;;
7529;SDS011;3806;52.270;10.544;2022-08-25T15:56:51;9.80;;;4.80;;
7529;SDS011;3806;52.270;10.544;2022-08-25T15:59:17;12.23;;;5.80;;
7529;SDS011;3806;52.270;10.544;2022-08-25T16:01:42;14.73;;;5.53;;
7529;SDS011;3806;52.270;10.544;2022-08-25T16:04:08;9.30;;;4.32;;
7529;SDS011;3806;52.270;10.544;2022-08-25T16:06:34;6.85;;;4.93;;
7529;SDS011;3806;52.270;10.544;2022-08-25T16:09:00;9.10;;;5.40;;
7529;SDS011;3806;52.270;10.544;2022-08-25T16:11:27;14.43;;;5.00;;
7529;SDS011;3806;52.270;10.544;2022-08-25T16:13:54;15.02;;;5.43;;
7529;SDS011;3806;52.270;10.544;2022-08-25T16:16:22;9.77;;;5.97;;
7529;SDS011;3806;52.270;10.544;2022-08-25T16:18:49;12.77;;;5.40;;
7529;SDS011;3806;52.270;10.544;2022-08-25T16:21:17;11.93;;;5.20;;
7529;SDS011;3806;52.270;10.544;2022-08-25T16:23:46;10.10;;;5.80;;
7529;SDS011;3806;52.270;10.544;2022-08-25T16:26:12;11.50;;;5.30;;
7529;SDS011;3806;52.270;10.544;2022-08-25T16:28:39;9.73;;;5.45;;
7529;SDS011;3806;52.270;10.544;2022-08-25T16:31:07;10.20;;;5.82;;
7529;SDS011;3806;52.270;10.544;2022-08-25T16:33:34;10.63;;;5.18;;
7529;SDS011;3806;52.270;10.544;2022-08-25T16:36:20;14.57;;;5.82;;
7529;SDS011;3806;52.270;10.544;2022-08-25T16:38:48;8.13;;;4.82;;
7529;SDS011;3806;52.270;10.544;2022-08-25T16:41:16;10.82;;;4.90;;
7529;SDS011;3806;52.270;10.544;2022-08-25T16:43:44;9.48;;;5.30;;
7529;SDS011;3806;52.270;10.544;2022-08-25T16:46:10;8.60;;;5.25;;
7529;SDS011;3806;52.270;10.544;2022-08-25T16:48:38;10.45;;;5.35;;